LCLKLSZH

Guest
Details From LCLK - Larnaca
To LSZH - Zurich
Flight Number -
Tags Generated
Created
Modified
Stats Distance 1,353 nm / 2,507 km
Max Altitude 0 ft / 0 m
Waypoints 8
Social Downloads 2
Likes 0
Share VATSIM

Download

Looking for another format? Having issues loading an existing format? Contact us
Advertisement - Login to hide

Notes

Generated

Route

LCLK ERGIN AMANI NASKO ROBBY RCH13 KLO LSZH

ID Type Via Altitude Latitude Longitude Leg Dist Tot Dist Heading (true) Name
O LCLK APT - 0 ft / 0 m 34.86568˚ 33.61326˚ - 0 nm - -
ERGIN FIX - 0 ft / 0 m 37.23000˚ 29.99944˚ 225 nm 225 nm 310° / 308° -
AMANI FIX - 0 ft / 0 m 39.33222˚ 26.49944˚ 207 nm 433 nm 308° / 306° -
NASKO FIX - 0 ft / 0 m 41.76694˚ 22.09778˚ 248 nm 681 nm 307° / 305° -
ROBBY FIX - 0 ft / 0 m 43.79518˚ 17.99123˚ 218 nm 899 nm 305° / 303° -
RCH13 FIX - 0 ft / 0 m 45.83031˚ 13.16892˚ 239 nm 1138 nm 302° / 299° -
KLO VOR - 0 ft / 0 m 47.45714˚ 8.54558˚ 214 nm 1353 nm 299° / 295° KLOTEN VOR-DME
O LSZH APT - 0 ft / 0 m 47.45894˚ 8.53748˚ 0 nm 1353 nm 288° / 288° -

Altitude Profile

Advertisement - Login to hide

Weather


0- 5 10 15 20 25 30 35+ Temperature / ° C

Clouds and Precipitation
Forecast for 2017-12-13 12:00 UTC. Updated 2 hours ago

Ground ~20,000 ft ~40,000 ft Winds

LCLK

Details ICAO LCLK (LCA)
Name Larnaca
Region Cyprus
Timezone Asia/Nicosia (UTC+2.0)
Stats Elevation 8 ft / 2 m (AMSL)
Location 34.875115° 33.624832°
Runways 1
Magnetic Variation 4.990° E

METAR

LCLK 130900Z 34014KT CAVOK 21/11 Q1017 NOSIG

Decode

TAF

TAF LCLK 130530Z 1306/1406 32009KT 9999 FEW030= TAF LCPH 130530Z 1306/1406 03006KT 9999 FEW030 BECMG 1306/1309 30015KT BECMG 1316/1320 01007KT

Decode

Departure Runways

ID Width Length Bearing (true) Bearing (mag) Surface Threshold Offset Overrun Length
04 148 ft / 45 m 9,771 ft / 2,978 m 45.15° 40.16° Asphalt 0 ft / 0 m 210 ft / 64 m
22 148 ft / 45 m 9,771 ft / 2,978 m 225.17° 220.18° Asphalt 575 ft / 175 m 0 ft / 0 m

LSZH

Details ICAO LSZH (ZRH)
Name Zurich
Region Switzerland
Timezone Europe/Zurich (UTC+1.0)
Stats Elevation 1,416 ft / 432 m (AMSL)
Location 47.463489° 8.549964°
Runways 3
Magnetic Variation 2.345° E

METAR

LSZH 130920Z 18006KT 140V210 9999 FEW008 01/M03 Q1017 R88/29 NOSIG

Decode

TAF

TAF LSZH 130825Z 1309/1415 VRB03KT CAVOK TX04/1314Z TN03/1403Z TX06/1414Z BECMG 1311/1314 22010KT 9999 SCT030 BKN050 PROB40 TEMPO 1314/1320 2500 RASN BKN009 PROB40 TEMPO 1320/1415 4500 RA BKN014 PROB40 TEMPO 1400/1415 24015G35KT

Decode

Destination Runways

ID Width Length Bearing (true) Bearing (mag) Surface Threshold Offset Overrun Length
10 197 ft / 60 m 8,180 ft / 2,493 m 95.98° 93.63° Concrete 0 ft / 0 m 197 ft / 60 m
14 197 ft / 60 m 10,816 ft / 3,297 m 137.30° 134.95° Concrete 492 ft / 150 m 0 ft / 0 m
16 197 ft / 60 m 12,137 ft / 3,699 m 155.00° 152.65° Concrete 0 ft / 0 m 197 ft / 60 m
28 197 ft / 60 m 8,180 ft / 2,493 m 276.01° 273.66° Concrete 0 ft / 0 m 197 ft / 60 m
32 197 ft / 60 m 10,816 ft / 3,297 m 317.32° 314.97° Concrete 0 ft / 0 m 197 ft / 60 m
34 197 ft / 60 m 12,137 ft / 3,699 m 335.01° 332.66° Concrete 1,542 ft / 470 m 0 ft / 0 m

Approach Navaids

Runway Type Ident Frequency Range Bearing (true) Bearing (mag) Slope Elevation
14 Localiser IKL 108.30 MHz 18 nm / 33 km 137.33° 134.99° - 1,460 ft / 445 m (AMSL)
14 Glidescope IKL 108.30 MHz 10 nm / 19 km 137.31° 134.97° 3.00° 1,460 ft / 445 m (AMSL)
14 DME IKL 108.30 MHz 18 nm / 33 km - - - 1,460 ft / 445 m (AMSL)
16 Localiser IZH 110.50 MHz 18 nm / 33 km 154.99° 152.64° - 1,400 ft / 427 m (AMSL)
16 Glidescope IZH 110.50 MHz 10 nm / 19 km 155.00° 152.66° 3.00° 1,400 ft / 427 m (AMSL)
16 DME IZH 110.50 MHz 18 nm / 33 km - - - 1,400 ft / 427 m (AMSL)
28 Localiser IZW 109.75 MHz 18 nm / 33 km 276.00° 273.65° - 1,416 ft / 432 m (AMSL)
28 Glidescope IZW 109.75 MHz 10 nm / 19 km 276.86° 274.52° 3.30° 1,416 ft / 432 m (AMSL)
28 DME IZW 109.75 MHz 18 nm / 33 km - - - 1,416 ft / 432 m (AMSL)
34 Localiser IZS 110.75 MHz 18 nm / 33 km 335.06° 332.71° - 1,416 ft / 432 m (AMSL)
34 Glidescope IZS 110.75 MHz 10 nm / 19 km 335.00° 332.66° 3.30° 1,416 ft / 432 m (AMSL)
34 DME IZS 110.75 MHz 18 nm / 33 km - - - 1,410 ft / 430 m (AMSL)

Popular Alternatives